Time;durP1;ratioP1;P1;durP2;ratioP2;P2;SDS_P1;SDS_P2;PMS_P1;PMS_P2;Temp;Humidity;BMP_temperature;BMP_pressure;BME280_temperature;BME280_humidity;BME280_pressure;Samples;Min_cycle;Max_cycle;Signal;HPM_P1;HPM_P2
2021/01/15 00:01:42;;;;;;;;;;;;;;;22.42;23.52;97090.19;5112106;28;721;-81
2021/01/15 00:04:08;;;;;;;;;;;;;;;22.58;23.46;97089.06;5129630;28;666;-81
2021/01/15 00:06:33;;;;;;;;;;;;;;;22.25;23.67;97094.59;5129297;28;919;-81
2021/01/15 00:08:58;;;;;;;;;;;;;;;22.18;23.78;97089.25;5110859;28;906;-81
2021/01/15 00:11:24;;;;;;;;;;;;;;;21.96;24.28;97100.66;5111996;28;1030;-81
2021/01/15 00:13:50;;;;;;;;;;;;;;;22.40;23.54;97091.94;5128117;28;682;-81
2021/01/15 00:16:36;;;;;;;;;;;;;;;22.24;23.93;97105.16;5111060;28;1909;-80
2021/01/15 00:19:01;;;;;;;;;;;;;;;22.63;23.24;97096.94;5128336;28;966;-81
2021/01/15 00:21:28;;;;;;;;;;;;;;;22.31;23.83;97104.84;5128729;28;1103;-81
2021/01/15 00:23:57;;;;;;;;;;;;;;;22.23;23.64;97105.63;5110732;28;945;-81
2021/01/15 00:26:23;;;;;;;;;;;;;;;22.65;23.27;97100.13;5111221;28;857;-81
2021/01/15 00:28:49;;;;;;;;;;;;;;;22.73;23.05;97107.03;5110783;28;672;-81
2021/01/15 00:31:14;;;;;;;;;;;;;;;21.87;24.54;97107.13;5110722;28;825;-81
2021/01/15 00:33:40;;;;;;;;;;;;;;;21.91;24.50;97116.22;5128290;28;628;-81
2021/01/15 00:36:06;;;;;;;;;;;;;;;21.98;24.43;97109.50;5110995;28;1933;-81
2021/01/15 00:38:31;;;;;;;;;;;;;;;21.97;24.23;97108.72;5109657;28;909;-81
2021/01/15 00:41:04;;;;;;;;;;;;;;;22.49;23.49;97111.78;5111733;28;997;-81
2021/01/15 00:43:29;;;;;;;;;;;;;;;22.29;24.05;97118.69;5110203;28;729;-81
2021/01/15 00:45:55;;;;;;;;;;;;;;;22.45;23.61;97113.97;5129501;28;614;-81
2021/01/15 00:48:20;;;;;;;;;;;;;;;22.62;23.56;97112.41;5111051;28;777;-81
2021/01/15 00:50:46;;;;;;;;;;;;;;;22.52;23.80;97116.50;5093896;28;1167;-81
2021/01/15 00:53:11;;;;;;;;;;;;;;;21.90;24.30;97111.03;5110748;28;917;-81
2021/01/15 00:55:37;;;;;;;;;;;;;;;22.71;23.39;97109.56;5094129;28;1944;-81
2021/01/15 00:58:03;;;;;;;;;;;;;;;22.55;23.77;97107.06;5110805;28;629;-81
2021/01/15 01:00:28;;;;;;;;;;;;;;;21.83;24.67;97110.09;5094654;28;1142;-81
2021/01/15 01:03:05;;;;;;;;;;;;;;;22.81;23.50;97113.19;5111515;28;760;-81
2021/01/15 01:05:31;;;;;;;;;;;;;;;22.34;23.74;97108.78;5127361;28;982;-81
2021/01/15 01:07:57;;;;;;;;;;;;;;;22.48;23.83;97110.19;5109486;28;855;-81
2021/01/15 01:10:22;;;;;;;;;;;;;;;22.23;24.13;97109.25;5110548;28;794;-81
2021/01/15 01:12:48;;;;;;;;;;;;;;;22.39;23.93;97101.72;5109947;28;610;-81
2021/01/15 01:15:13;;;;;;;;;;;;;;;22.77;23.44;97101.97;5127020;28;1971;-81
2021/01/15 01:17:39;;;;;;;;;;;;;;;22.31;24.07;97104.06;5109799;28;618;-81
2021/01/15 01:20:05;;;;;;;;;;;;;;;22.86;23.36;97110.47;5109638;28;1076;-81
2021/01/15 01:22:30;;;;;;;;;;;;;;;22.27;24.18;97115.53;5109258;28;967;-81
2021/01/15 01:24:55;;;;;;;;;;;;;;;22.17;24.13;97111.09;5092019;28;1427;-81
2021/01/15 01:27:21;;;;;;;;;;;;;;;22.65;23.60;97105.78;5110255;28;618;-81
2021/01/15 01:29:46;;;;;;;;;;;;;;;22.59;23.58;97102.00;5126865;28;781;-81
2021/01/15 01:32:12;;;;;;;;;;;;;;;22.54;23.80;97105.47;5109554;28;828;-81
2021/01/15 01:34:37;;;;;;;;;;;;;;;22.96;23.16;97102.00;5126477;28;982;-81
2021/01/15 01:37:03;;;;;;;;;;;;;;;22.45;23.61;97102.66;5126968;28;1878;-81
2021/01/15 01:39:28;;;;;;;;;;;;;;;22.27;23.82;97115.53;5109440;28;951;-80
2021/01/15 01:41:54;;;;;;;;;;;;;;;22.56;23.60;97108.63;5127607;28;674;-80
2021/01/15 01:44:19;;;;;;;;;;;;;;;22.56;23.54;97115.06;5109146;28;922;-80
2021/01/15 01:46:44;;;;;;;;;;;;;;;22.92;23.00;97113.50;5127206;28;867;-81
2021/01/15 01:49:10;;;;;;;;;;;;;;;22.56;23.59;97114.28;5127616;28;1018;-81
2021/01/15 01:51:35;;;;;;;;;;;;;;;22.57;23.47;97107.34;5127551;28;874;-81
2021/01/15 01:54:01;;;;;;;;;;;;;;;22.66;23.27;97113.03;5109341;28;1132;-81
2021/01/15 01:56:26;;;;;;;;;;;;;;;22.67;23.41;97120.28;5127792;28;1891;-81
2021/01/15 01:58:52;;;;;;;;;;;;;;;22.08;23.96;97120.38;5109504;28;633;-81
2021/01/15 02:01:17;;;;;;;;;;;;;;;22.42;23.31;97121.38;5109322;28;860;-81
2021/01/15 02:03:42;;;;;;;;;;;;;;;22.15;23.91;97127.81;5091578;28;1013;-81
2021/01/15 02:06:11;;;;;;;;;;;;;;;22.05;23.75;97120.50;5109577;28;912;-81
2021/01/15 02:08:36;;;;;;;;;;;;;;;22.75;22.95;97115.88;5126478;28;1109;-81
2021/01/15 02:11:04;;;;;;;;;;;;;;;22.72;23.07;97116.78;5127647;28;614;-81
2021/01/15 02:13:48;;;;;;;;;;;;;;;22.36;23.42;97121.22;5126972;28;706;-81
2021/01/15 02:16:17;;;;;;;;;;;;;;;22.62;22.79;97123.72;5127049;28;1878;-81
2021/01/15 02:18:45;;;;;;;;;;;;;;;22.82;22.52;97120.41;5108842;28;1075;-81
2021/01/15 02:21:29;;;;;;;;;;;;;;;22.89;22.63;97108.75;5109528;28;961;-82
2021/01/15 02:23:58;;;;;;;;;;;;;;;22.38;23.12;97108.59;5126024;28;717;-80
2021/01/15 02:26:36;;;;;;;;;;;;;;;22.48;23.03;97110.19;5109147;28;657;-81
2021/01/15 02:29:04;;;;;;;;;;;;;;;22.53;23.01;97106.72;5127764;28;642;-81
2021/01/15 02:31:45;;;;;;;;;;;;;;;22.53;23.06;97101.06;5107788;28;654;-80
2021/01/15 02:34:30;;;;;;;;;;;;;;;22.07;23.22;97104.63;5124396;28;951;-80
2021/01/15 02:37:02;;;;;;;;;;;;;;;22.71;22.60;97109.56;5124676;28;1899;-80
2021/01/15 02:39:31;;;;;;;;;;;;;;;22.08;23.50;97116.75;5124944;28;638;-81
2021/01/15 02:41:56;;;;;;;;;;;;;;;21.94;23.56;97137.19;5109164;28;705;-81
2021/01/15 02:44:22;;;;;;;;;;;;;;;22.30;23.11;97131.59;5108583;28;698;-81
2021/01/15 02:47:00;;;;;;;;;;;;;;;22.28;23.05;97130.50;5126296;28;852;-81
2021/01/15 02:49:28;;;;;;;;;;;;;;;22.96;21.94;97128.31;5107757;28;853;-81
2021/01/15 02:51:54;;;;;;;;;;;;;;;22.12;22.81;97137.22;5090884;28;862;-81
2021/01/15 02:54:20;;;;;;;;;;;;;;;22.36;22.68;97134.59;5125845;28;1003;-80
2021/01/15 02:56:45;;;;;;;;;;;;;;;21.98;23.07;97137.81;5126376;28;1973;-81
2021/01/15 02:59:11;;;;;;;;;;;;;;;21.90;23.10;97147.84;5125673;28;697;-81
2021/01/15 03:01:48;;;;;;;;;;;;;;;22.13;22.97;97143.72;5108434;28;657;-80
2021/01/15 03:04:26;;;;;;;;;;;;;;;22.56;22.58;97142.66;5090886;28;917;-81
2021/01/15 03:06:53;;;;;;;;;;;;;;;21.87;22.98;97149.59;5108106;28;898;-81
2021/01/15 03:09:18;;;;;;;;;;;;;;;22.26;22.53;97147.97;5108044;28;729;-81
2021/01/15 03:11:47;;;;;;;;;;;;;;;22.23;22.89;97148.13;5108448;28;665;-81
2021/01/15 03:14:12;;;;;;;;;;;;;;;22.19;22.38;97153.94;5108059;28;662;-81
2021/01/15 03:16:39;;;;;;;;;;;;;;;22.24;22.55;97144.81;5112029;28;1955;-81
2021/01/15 03:19:04;;;;;;;;;;;;;;;21.87;22.80;97137.47;5111704;28;852;-81
2021/01/15 03:21:30;;;;;;;;;;;;;;;22.11;22.60;97135.66;5111958;28;970;-81
2021/01/15 03:23:56;;;;;;;;;;;;;;;22.73;21.63;97129.72;5129002;28;935;-80
2021/01/15 03:26:21;;;;;;;;;;;;;;;22.13;22.33;97127.50;5111652;28;832;-81
2021/01/15 03:28:47;;;;;;;;;;;;;;;22.61;21.78;97136.34;5111684;28;1334;-80
2021/01/15 03:31:12;;;;;;;;;;;;;;;22.01;22.43;97125.53;5112322;28;863;-80
2021/01/15 03:33:37;;;;;;;;;;;;;;;21.65;22.87;97115.69;5110743;28;855;-80
2021/01/15 03:36:03;;;;;;;;;;;;;;;22.59;21.68;97119.81;5129169;28;1914;-78
2021/01/15 03:38:28;;;;;;;;;;;;;;;21.92;22.30;97128.38;5125057;28;984;-79
2021/01/15 03:40:55;;;;;;;;;;;;;;;22.22;21.83;97130.31;5126343;28;680;-78
2021/01/15 03:43:21;;;;;;;;;;;;;;;22.08;22.38;97125.25;5125045;28;713;-78
2021/01/15 03:45:47;;;;;;;;;;;;;;;22.49;21.89;97131.63;5108527;28;677;-77
2021/01/15 03:48:13;;;;;;;;;;;;;;;21.90;22.46;97136.53;5124170;28;865;-77
2021/01/15 03:50:38;;;;;;;;;;;;;;;21.95;22.15;97144.41;5125040;28;841;-77
2021/01/15 03:53:04;;;;;;;;;;;;;;;22.30;22.07;97153.50;5124365;28;828;-77
2021/01/15 03:55:29;;;;;;;;;;;;;;;21.83;22.62;97132.75;5124459;28;1967;-77
2021/01/15 03:57:55;;;;;;;;;;;;;;;21.92;22.47;97139.69;5107121;28;674;-78
2021/01/15 04:00:20;;;;;;;;;;;;;;;22.00;22.38;97135.28;5124585;28;682;-77
2021/01/15 04:02:46;;;;;;;;;;;;;;;22.20;22.05;97144.19;5124353;28;984;-78
2021/01/15 04:05:12;;;;;;;;;;;;;;;22.22;21.63;97147.31;5124406;28;876;-78
2021/01/15 04:07:37;;;;;;;;;;;;;;;22.00;21.97;97153.06;5124613;28;925;-78
2021/01/15 04:10:04;;;;;;;;;;;;;;;22.31;21.93;97161.50;5124223;28;598;-78
2021/01/15 04:12:29;;;;;;;;;;;;;;;22.43;21.29;97168.28;5124993;28;725;-78
2021/01/15 04:14:55;;;;;;;;;;;;;;;22.41;21.77;97170.03;5123969;28;645;-78
2021/01/15 04:17:21;;;;;;;;;;;;;;;22.22;21.81;97175.66;5124178;28;1906;-78
2021/01/15 04:19:49;;;;;;;;;;;;;;;20.21;21.74;96892.69;5123887;28;967;-78
2021/01/15 04:22:15;;;;;;;;;;;;;;;22.01;22.24;97187.84;5124547;28;918;-78
2021/01/15 04:24:40;;;;;;;;;;;;;;;22.19;21.83;97187.94;5123790;28;620;-78
2021/01/15 04:27:06;;;;;;;;;;;;;;;22.02;22.08;97189.44;5124332;28;812;-78
2021/01/15 04:29:31;;;;;;;;;;;;;;;21.88;22.24;97190.81;5123600;28;716;-78
2021/01/15 04:31:57;;;;;;;;;;;;;;;22.18;21.68;97186.38;5124303;28;966;-77
2021/01/15 04:34:22;;;;;;;;;;;;;;;22.25;21.70;97191.75;5123501;28;911;-78
2021/01/15 04:36:48;;;;;;;;;;;;;;;21.97;21.95;97190.06;5124165;28;1894;-78
2021/01/15 04:39:13;;;;;;;;;;;;;;;22.39;21.24;97190.34;5105661;28;865;-77
2021/01/15 04:41:40;;;;;;;;;;;;;;;22.42;21.06;97194.28;5124578;28;606;-78
2021/01/15 04:44:06;;;;;;;;;;;;;;;22.44;21.17;97191.78;5106216;28;622;-78
2021/01/15 04:46:31;;;;;;;;;;;;;;;22.30;21.34;97199.63;5124024;28;980;-78
2021/01/15 04:48:57;;;;;;;;;;;;;;;21.91;21.81;97206.06;5105732;28;998;-78
2021/01/15 04:51:23;;;;;;;;;;;;;;;22.33;21.36;97197.91;5123961;28;966;-78
2021/01/15 04:54:13;;;;;;;;;;;;;;;22.24;21.22;97195.84;5123201;28;1092;-78
2021/01/15 04:56:40;;;;;;;;;;;;;;;22.24;21.24;97204.34;5123938;28;1882;-78
2021/01/15 04:59:06;;;;;;;;;;;;;;;21.91;21.97;97206.06;5122303;28;1527;-78
2021/01/15 05:01:50;;;;;;;;;;;;;;;22.14;21.34;97219.72;5123443;28;1471;-78
2021/01/15 05:04:16;;;;;;;;;;;;;;;21.43;22.13;97214.81;5123018;28;753;-77
2021/01/15 05:06:45;;;;;;;;;;;;;;;21.71;21.77;97221.44;5132848;27;1561;-78
2021/01/15 05:09:11;;;;;;;;;;;;;;;22.32;21.23;97233.16;5120639;28;1487;-77
2021/01/15 05:11:37;;;;;;;;;;;;;;;21.99;21.30;97236.50;5123560;28;1456;-78
2021/01/15 05:14:04;;;;;;;;;;;;;;;22.19;21.10;97244.63;5122730;28;593;-77
2021/01/15 05:16:30;;;;;;;;;;;;;;;22.19;21.37;97250.28;5123140;28;1897;-78
2021/01/15 05:18:55;;;;;;;;;;;;;;;21.68;21.82;97249.88;5138986;27;645;-77
2021/01/15 05:21:21;;;;;;;;;;;;;;;21.94;21.33;97259.75;5139754;27;838;-78
2021/01/15 05:23:46;;;;;;;;;;;;;;;22.17;21.47;97263.31;5138523;27;906;-78
2021/01/15 05:26:14;;;;;;;;;;;;;;;21.73;21.63;97269.88;5139701;27;908;-78
2021/01/15 05:28:41;;;;;;;;;;;;;;;21.82;22.01;97272.75;5122382;28;630;-78
2021/01/15 05:31:06;;;;;;;;;;;;;;;22.18;21.22;97265.72;5123958;28;656;-78
2021/01/15 05:33:32;;;;;;;;;;;;;;;22.24;21.15;97272.34;5138702;27;689;-78
2021/01/15 05:35:58;;;;;;;;;;;;;;;21.79;21.87;97267.22;5123657;28;1897;-78
2021/01/15 05:38:23;;;;;;;;;;;;;;;22.07;21.41;97271.78;5120985;28;1563;-78
2021/01/15 05:40:49;;;;;;;;;;;;;;;21.68;22.06;97281.81;5122815;28;1460;-77
2021/01/15 05:43:22;;;;;;;;;;;;;;;21.54;22.01;97285.97;5104343;28;599;-77
2021/01/15 05:46:03;;;;;;;;;;;;;;;21.87;21.84;97298.91;5105863;28;649;-78
2021/01/15 05:48:28;;;;;;;;;;;;;;;22.77;20.51;97294.84;5121835;28;1507;-71
2021/01/15 05:50:54;;;;;;;;;;;;;;;21.98;21.42;97302.13;5123009;28;1055;-78
2021/01/15 05:53:19;;;;;;;;;;;;;;;22.00;21.50;97308.88;5121570;28;867;-77
2021/01/15 05:55:57;;;;;;;;;;;;;;;21.64;21.68;97300.97;5101519;28;1894;-77
2021/01/15 05:58:24;;;;;;;;;;;;;;;22.09;21.56;97302.47;5099045;28;1516;-78
2021/01/15 06:00:52;;;;;;;;;;;;;;;21.83;21.59;97301.88;5102251;28;1518;-77
2021/01/15 06:03:17;;;;;;;;;;;;;;;21.83;21.58;97302.66;5101903;28;655;-77
2021/01/15 06:05:46;;;;;;;;;;;;;;;22.07;21.28;97304.97;5102531;28;973;-78
2021/01/15 06:08:12;;;;;;;;;;;;;;;21.86;21.74;97303.75;5099401;28;1480;-77
2021/01/15 06:10:46;;;;;;;;;;;;;;;22.24;21.45;97314.84;5083675;28;1567;-78
2021/01/15 06:13:11;;;;;;;;;;;;;;;21.92;21.86;97309.63;5081425;28;685;-78
2021/01/15 06:15:43;;;;;;;;;;;;;;;22.00;21.58;97311.72;5081608;28;1906;-78
2021/01/15 06:18:14;;;;;;;;;;;;;;;22.35;21.29;97314.41;5081805;28;634;-78
2021/01/15 06:20:39;;;;;;;;;;;;;;;22.09;21.31;97313.81;5082139;28;1524;-78
2021/01/15 06:23:04;;;;;;;;;;;;;;;21.87;21.70;97316.69;5097456;28;1559;-78
2021/01/15 06:25:30;;;;;;;;;;;;;;;22.26;21.42;97329.34;5081502;28;817;-78
2021/01/15 06:27:56;;;;;;;;;;;;;;;21.94;21.59;97329.78;5082182;28;677;-78
2021/01/15 06:30:25;;;;;;;;;;;;;;;21.76;22.01;97348.25;5081267;28;757;-78
2021/01/15 06:32:51;;;;;;;;;;;;;;;21.95;21.64;97354.00;5073343;28;1502;-78
2021/01/15 06:35:29;;;;;;;;;;;;;;;22.57;20.69;97356.84;5080269;28;1673;-77
2021/01/15 06:38:07;;;;;;;;;;;;;;;21.76;21.84;97348.25;5079298;28;1555;-78
2021/01/15 06:40:33;;;;;;;;;;;;;;;22.24;21.45;97354.53;5082179;28;634;-78
2021/01/15 06:42:59;;;;;;;;;;;;;;;22.14;21.26;97352.91;5081592;28;674;-78
2021/01/15 06:45:25;;;;;;;;;;;;;;;21.75;21.82;97346.66;5081973;28;625;-78
2021/01/15 06:47:53;;;;;;;;;;;;;;;21.47;22.03;97359.81;5081444;28;658;-77
2021/01/15 06:50:18;;;;;;;;;;;;;;;22.00;21.73;97362.69;5082995;28;1575;-78
2021/01/15 06:52:48;;;;;;;;;;;;;;;22.30;21.28;97375.34;5085349;28;863;-77
2021/01/15 06:55:17;;;;;;;;;;;;;;;22.22;21.29;97381.72;5080434;28;1091;-78
2021/01/15 06:57:44;;;;;;;;;;;;;;;21.83;21.48;97398.94;5065769;28;1913;-77
2021/01/15 07:00:13;;;;;;;;;;;;;;;22.16;21.29;97401.38;5065556;28;618;-77
2021/01/15 07:02:57;;;;;;;;;;;;;;;22.20;21.25;97410.53;5065944;28;718;-78
2021/01/15 07:05:25;;;;;;;;;;;;;;;21.82;21.61;97422.06;5069235;28;849;-78
2021/01/15 07:07:50;;;;;;;;;;;;;;;21.92;21.47;97423.72;5079610;28;1515;-78
2021/01/15 07:10:16;;;;;;;;;;;;;;;21.99;21.49;97434.00;5064768;28;635;-78
2021/01/15 07:12:41;;;;;;;;;;;;;;;22.12;21.52;97440.38;5065452;28;713;-78
2021/01/15 07:15:16;;;;;;;;;;;;;;;22.48;20.58;97436.19;5069629;28;1614;-78
2021/01/15 07:17:46;;;;;;;;;;;;;;;22.23;21.15;97448.50;5099995;28;1914;-77
2021/01/15 07:20:17;;;;;;;;;;;;;;;21.90;21.56;97442.41;5102557;28;1542;-77
2021/01/15 07:22:53;;;;;;;;;;;;;;;21.88;21.27;97447.75;5084682;28;943;-77
2021/01/15 07:25:19;;;;;;;;;;;;;;;22.39;21.03;97445.47;5085153;28;709;-78
2021/01/15 07:27:45;;;;;;;;;;;;;;;22.23;21.22;97442.84;5085129;28;721;-77
2021/01/15 07:30:26;;;;;;;;;;;;;;;22.14;21.37;97437.91;5084654;28;649;-77
2021/01/15 07:32:55;;;;;;;;;;;;;;;21.87;21.35;97443.34;5090781;28;1653;-77
2021/01/15 07:35:21;;;;;;;;;;;;;;;22.01;21.33;97437.13;5104397;28;999;-78
2021/01/15 07:37:47;;;;;;;;;;;;;;;22.19;21.04;97434.47;5105037;28;1918;-78
2021/01/15 07:40:14;;;;;;;;;;;;;;;21.76;21.69;97438.06;5105191;28;1016;-78
2021/01/15 07:42:40;;;;;;;;;;;;;;;21.69;21.60;97444.75;5099836;28;1381;-68
2021/01/15 07:45:06;;;;;;;;;;;;;;;22.70;21.03;97453.97;5082783;28;847;-67
2021/01/15 07:47:32;;;;;;;;;;;;;;;22.61;21.10;97463.22;5069897;28;1813;-71
2021/01/15 07:50:03;;;;;;;;;;;;;;;22.78;20.63;97472.25;5062924;28;998;-77
2021/01/15 07:52:29;;;;;;;;;;;;;;;22.15;21.53;97481.97;5064626;28;898;-78
2021/01/15 07:54:59;;;;;;;;;;;;;;;21.83;21.72;97475.41;5100642;28;1468;-78
2021/01/15 07:57:25;;;;;;;;;;;;;;;21.81;21.92;97477.94;5141240;27;1984;-78
2021/01/15 07:59:50;;;;;;;;;;;;;;;22.71;20.92;97471.75;5124860;28;634;-78
2021/01/15 08:02:16;;;;;;;;;;;;;;;22.17;21.58;97475.84;5141372;27;891;-78
2021/01/15 08:04:42;;;;;;;;;;;;;;;21.91;21.73;97484.44;5123290;28;1531;-76
2021/01/15 08:07:11;;;;;;;;;;;;;;;21.58;22.30;97496.09;5125227;28;874;-79
2021/01/15 08:09:39;;;;;;;;;;;;;;;22.52;21.27;97493.56;5124774;28;1428;-78
2021/01/15 08:12:05;;;;;;;;;;;;;;;22.69;20.77;97492.09;5125930;28;637;-78
2021/01/15 08:14:31;;;;;;;;;;;;;;;22.87;20.56;97494.22;5124784;28;1518;-78
2021/01/15 08:16:56;;;;;;;;;;;;;;;22.58;20.88;97497.38;5123557;28;1905;-79
2021/01/15 08:19:21;;;;;;;;;;;;;;;22.42;21.32;97506.88;5126459;28;875;-80
2021/01/15 08:21:47;;;;;;;;;;;;;;;22.56;21.13;97516.91;5127563;28;873;-80
2021/01/15 08:24:13;;;;;;;;;;;;;;;22.52;21.01;97519.06;5126705;28;1472;-80
2021/01/15 08:26:50;;;;;;;;;;;;;;;22.01;21.50;97527.78;5127428;28;1514;-80
2021/01/15 08:29:17;;;;;;;;;;;;;;;22.01;21.87;97528.59;5126657;28;689;-80
2021/01/15 08:31:43;;;;;;;;;;;;;;;22.24;21.40;97535.09;5092944;28;743;-80
2021/01/15 08:34:12;;;;;;;;;;;;;;;22.25;21.29;97548.03;5125509;28;1467;-80
2021/01/15 08:36:41;;;;;;;;;;;;;;;22.08;21.73;97547.38;5126785;28;1890;-80
2021/01/15 08:39:08;;;;;;;;;;;;;;;23.39;20.26;97561.44;5109276;28;892;-80
2021/01/15 08:41:34;;;;;;;;;;;;;;;24.02;19.49;97552.78;5127225;28;661;-80
2021/01/15 08:44:00;;;;;;;;;;;;;;;23.61;19.81;97554.88;5109448;28;1534;-80
2021/01/15 08:46:25;;;;;;;;;;;;;;;23.26;20.21;97563.63;5123644;28;807;-80
2021/01/15 08:48:51;;;;;;;;;;;;;;;23.15;20.16;97574.59;5105992;28;922;-80
2021/01/15 08:51:19;;;;;;;;;;;;;;;23.12;20.60;97569.88;5089096;28;805;-80
2021/01/15 08:54:07;;;;;;;;;;;;;;;23.32;19.95;97567.44;5088882;28;940;-80
2021/01/15 08:56:40;;;;;;;;;;;;;;;23.07;20.42;97579.00;5108521;28;1901;-79
2021/01/15 08:59:06;;;;;;;;;;;;;;;23.02;20.65;97585.25;5108188;28;852;-80
2021/01/15 09:01:34;;;;;;;;;;;;;;;22.94;20.63;97595.28;5126937;28;633;-80
2021/01/15 09:04:04;;;;;;;;;;;;;;;22.77;20.78;97592.66;5124669;28;1483;-80
2021/01/15 09:06:29;;;;;;;;;;;;;;;22.79;20.92;97587.28;5108382;28;1653;-80
2021/01/15 09:08:56;;;;;;;;;;;;;;;22.73;21.17;97583.47;5141672;27;939;-80
2021/01/15 09:11:25;;;;;;;;;;;;;;;23.00;20.72;97579.25;5126671;28;686;-80
2021/01/15 09:13:50;;;;;;;;;;;;;;;23.16;20.45;97561.19;5123929;28;1569;-80
2021/01/15 09:16:19;;;;;;;;;;;;;;;22.60;21.15;97568.59;5108678;28;1901;-80
2021/01/15 09:18:44;;;;;;;;;;;;;;;22.04;21.68;97566.56;5125187;28;956;-80
2021/01/15 09:21:10;;;;;;;;;;;;;;;22.43;21.49;97570.81;5126382;28;929;-79
2021/01/15 09:23:35;;;;;;;;;;;;;;;22.59;21.41;97576.31;5124708;28;1538;-80
2021/01/15 09:26:01;;;;;;;;;;;;;;;22.56;21.46;97568.72;5109023;28;633;-80
2021/01/15 09:28:26;;;;;;;;;;;;;;;22.62;21.26;97571.75;5125660;28;716;-80
2021/01/15 09:30:52;;;;;;;;;;;;;;;22.69;21.42;97579.19;5126893;28;658;-80
2021/01/15 09:33:17;;;;;;;;;;;;;;;22.61;21.44;97584.34;5123845;28;1553;-77
2021/01/15 09:35:42;;;;;;;;;;;;;;;22.47;21.45;97587.72;5120672;28;1909;-77
2021/01/15 09:38:08;;;;;;;;;;;;;;;22.05;22.22;97590.78;5121457;28;953;-77
2021/01/15 09:40:33;;;;;;;;;;;;;;;22.21;22.01;97592.69;5121270;28;710;-76
2021/01/15 09:43:01;;;;;;;;;;;;;;;21.96;22.46;97585.03;5121277;28;593;-77
2021/01/15 09:45:26;;;;;;;;;;;;;;;21.97;22.31;97589.47;5122376;28;1578;-78
2021/01/15 09:47:52;;;;;;;;;;;;;;;21.58;23.03;97597.22;5123170;28;1499;-78
2021/01/15 09:50:18;;;;;;;;;;;;;;;21.57;23.02;97598.50;5123009;28;808;-78
2021/01/15 09:52:47;;;;;;;;;;;;;;;21.42;23.08;97600.97;5105746;28;889;-77
2021/01/15 09:55:12;;;;;;;;;;;;;;;21.23;23.17;97597.09;5122850;28;1459;-78
2021/01/15 09:57:43;;;;;;;;;;;;;;;21.26;23.28;97589.75;5123594;28;1913;-78
2021/01/15 10:00:09;;;;;;;;;;;;;;;21.24;23.64;97595.06;5122891;28;636;-78
2021/01/15 10:02:34;;;;;;;;;;;;;;;21.21;23.71;97590.31;5123212;28;1085;-78
2021/01/15 10:04:59;;;;;;;;;;;;;;;21.36;23.28;97590.69;5122195;28;1464;-77
2021/01/15 10:07:25;;;;;;;;;;;;;;;21.41;23.24;97596.56;5123333;28;1553;-78
2021/01/15 10:09:50;;;;;;;;;;;;;;;21.18;23.59;97594.84;5122454;28;632;-78
2021/01/15 10:12:16;;;;;;;;;;;;;;;21.16;23.83;97597.34;5123530;28;633;-78
2021/01/15 10:14:41;;;;;;;;;;;;;;;21.14;23.69;97597.00;5122616;28;634;-78
2021/01/15 10:17:07;;;;;;;;;;;;;;;21.67;22.84;97597.34;5122910;28;1905;-78
2021/01/15 10:19:32;;;;;;;;;;;;;;;21.36;23.44;97593.53;5122204;28;870;-78
2021/01/15 10:21:58;;;;;;;;;;;;;;;21.37;23.40;97589.44;5123941;28;1101;-78
2021/01/15 10:24:23;;;;;;;;;;;;;;;21.49;22.97;97583.75;5123851;28;737;-78
2021/01/15 10:26:48;;;;;;;;;;;;;;;21.45;23.26;97587.94;5127298;28;1515;-78
2021/01/15 10:29:14;;;;;;;;;;;;;;;21.27;23.26;97588.50;5126671;28;606;-78
2021/01/15 10:31:55;;;;;;;;;;;;;;;21.58;23.21;97591.56;5108846;28;927;-78
2021/01/15 10:34:21;;;;;;;;;;;;;;;21.12;23.49;97593.81;5109764;28;943;-77
2021/01/15 10:36:47;;;;;;;;;;;;;;;21.03;23.42;97588.03;5109185;28;1977;-78
2021/01/15 10:39:12;;;;;;;;;;;;;;;21.23;23.30;97585.78;5142691;27;824;-78
2021/01/15 10:41:39;;;;;;;;;;;;;;;21.79;22.94;97585.19;5127306;28;729;-77
2021/01/15 10:44:05;;;;;;;;;;;;;;;21.76;22.63;97577.63;5126577;28;763;-78
2021/01/15 10:46:36;;;;;;;;;;;;;;;21.35;23.07;97580.59;5126386;28;1530;-78
2021/01/15 10:49:01;;;;;;;;;;;;;;;22.16;22.06;97579.09;5142182;27;988;-77
2021/01/15 10:51:27;;;;;;;;;;;;;;;21.76;22.77;97568.31;5127095;28;877;-78
2021/01/15 10:53:52;;;;;;;;;;;;;;;21.55;23.03;97573.47;5142733;27;1005;-77
2021/01/15 10:56:18;;;;;;;;;;;;;;;21.68;22.84;97567.78;5127070;28;1984;-77
2021/01/15 10:58:43;;;;;;;;;;;;;;;21.57;23.12;97556.03;5126143;28;658;-78
2021/01/15 11:01:08;;;;;;;;;;;;;;;21.87;22.94;97550.97;5126548;28;883;-78
2021/01/15 11:03:34;;;;;;;;;;;;;;;21.73;22.46;97558.72;5125302;28;899;-78
2021/01/15 11:05:59;;;;;;;;;;;;;;;21.71;23.13;97555.53;5126897;28;852;-78
2021/01/15 11:08:25;;;;;;;;;;;;;;;22.04;22.42;97555.22;5125427;28;1558;-78
2021/01/15 11:10:50;;;;;;;;;;;;;;;21.60;23.11;97552.25;5126840;28;733;-78
2021/01/15 11:13:16;;;;;;;;;;;;;;;22.11;22.44;97549.31;5125748;28;917;-78
2021/01/15 11:15:41;;;;;;;;;;;;;;;21.68;22.87;97550.00;5126724;28;1951;-78
2021/01/15 11:18:07;;;;;;;;;;;;;;;21.58;22.86;97546.28;5125055;28;1593;-78
2021/01/15 11:20:32;;;;;;;;;;;;;;;21.35;23.43;97561.59;5126324;28;967;-78
2021/01/15 11:22:58;;;;;;;;;;;;;;;21.66;23.06;97546.81;5125589;28;744;-78
2021/01/15 11:25:23;;;;;;;;;;;;;;;21.85;22.66;97555.03;5125867;28;682;-78
2021/01/15 11:27:49;;;;;;;;;;;;;;;21.35;23.20;97555.13;5125394;28;1648;-78
2021/01/15 11:30:14;;;;;;;;;;;;;;;21.96;22.51;97554.66;5125512;28;1018;-78
2021/01/15 11:32:40;;;;;;;;;;;;;;;21.85;22.82;97555.03;5141769;27;939;-78
2021/01/15 11:35:06;;;;;;;;;;;;;;;21.53;23.05;97550.47;5125079;28;934;-77
2021/01/15 11:37:35;;;;;;;;;;;;;;;21.49;23.15;97554.66;5125413;28;1901;-78
2021/01/15 11:40:01;;;;;;;;;;;;;;;21.61;22.96;97556.69;5107324;28;1570;-78
2021/01/15 11:42:26;;;;;;;;;;;;;;;22.02;22.48;97557.69;5126415;28;668;-78
2021/01/15 11:44:52;;;;;;;;;;;;;;;21.47;23.23;97562.84;5124966;28;927;-78
2021/01/15 11:47:17;;;;;;;;;;;;;;;21.63;23.19;97562.69;5127321;28;945;-80
2021/01/15 11:49:42;;;;;;;;;;;;;;;22.14;22.44;97567.44;5124642;28;1483;-78
2021/01/15 11:52:08;;;;;;;;;;;;;;;21.55;23.24;97552.84;5126280;28;685;-79
2021/01/15 11:54:34;;;;;;;;;;;;;;;21.76;22.64;97560.63;5125163;28;979;-78
2021/01/15 11:57:00;;;;;;;;;;;;;;;22.29;22.23;97557.19;5125975;28;1901;-78
2021/01/15 11:59:25;;;;;;;;;;;;;;;21.64;22.70;97555.78;5124852;28;1092;-78
2021/01/15 12:01:55;;;;;;;;;;;;;;;21.79;22.89;97568.19;5125497;28;1487;-78
2021/01/15 12:04:20;;;;;;;;;;;;;;;22.40;21.93;97565.31;5125708;28;954;-78
2021/01/15 12:06:50;;;;;;;;;;;;;;;22.25;22.01;97582.81;5126050;28;671;-78
2021/01/15 12:09:15;;;;;;;;;;;;;;;21.95;22.53;97575.75;5125127;28;609;-78
2021/01/15 12:11:41;;;;;;;;;;;;;;;21.78;22.88;97582.81;5126061;28;1487;-78
2021/01/15 12:14:07;;;;;;;;;;;;;;;22.08;22.61;97572.88;5124548;28;901;-78
2021/01/15 12:16:34;;;;;;;;;;;;;;;22.38;22.20;97584.78;5125179;28;1976;-78
2021/01/15 12:18:59;;;;;;;;;;;;;;;22.12;22.48;97579.22;5124886;28;967;-78
2021/01/15 12:21:25;;;;;;;;;;;;;;;21.52;23.18;97582.88;5125605;28;1507;-78
2021/01/15 12:23:50;;;;;;;;;;;;;;;22.29;22.14;97589.16;5124645;28;1594;-78
2021/01/15 12:26:16;;;;;;;;;;;;;;;22.33;22.40;97589.81;5125845;28;653;-78
2021/01/15 12:28:42;;;;;;;;;;;;;;;22.06;22.74;97590.31;5123803;28;899;-78
2021/01/15 12:31:07;;;;;;;;;;;;;;;22.01;22.50;97595.78;5125561;28;1043;-78
2021/01/15 12:33:33;;;;;;;;;;;;;;;22.31;22.14;97602.84;5123724;28;1506;-78
2021/01/15 12:35:58;;;;;;;;;;;;;;;21.50;23.09;97596.69;5125667;28;1939;-78
2021/01/15 12:38:24;;;;;;;;;;;;;;;22.03;22.59;97596.94;5124098;28;719;-78
2021/01/15 12:40:50;;;;;;;;;;;;;;;21.58;23.03;97602.91;5125753;28;654;-78
2021/01/15 12:43:15;;;;;;;;;;;;;;;21.79;23.21;97602.19;5138618;27;1467;-78
2021/01/15 12:45:47;;;;;;;;;;;;;;;22.31;22.35;97609.31;5124452;28;1577;-78
2021/01/15 12:48:13;;;;;;;;;;;;;;;22.01;22.82;97604.28;5140214;27;1135;-77
2021/01/15 12:50:39;;;;;;;;;;;;;;;21.74;23.17;97604.81;5125060;28;652;-78
2021/01/15 12:53:04;;;;;;;;;;;;;;;21.68;22.99;97607.41;5123700;28;1629;-78
2021/01/15 12:55:33;;;;;;;;;;;;;;;21.94;22.90;97602.50;5125119;28;1152;-78
2021/01/15 12:57:59;;;;;;;;;;;;;;;22.03;22.81;97604.63;5124193;28;1894;-78
2021/01/15 13:00:25;;;;;;;;;;;;;;;22.08;22.46;97602.00;5140102;27;930;-78
2021/01/15 13:02:50;;;;;;;;;;;;;;;22.30;22.06;97607.75;5139036;27;1518;-78